Sandy Hook, CT (06482)

11:01 PM EST on March 02, 2015 (GMT -0500)
Sandy Hook - Pootatuck | Change Station
CLOSE
Current Station
Personal Weather Station
Location: Sandy Hook, CT
Elevation: 400 ft
Nearby Weather Stations

Elev 400 ft 41.43 °N, 73.27 °W | Updated 1 minute ago

Clear
Clear
23.8 °F
Feels Like 24 °F
N
2.0
Wind Variable Wind from East
Gusts 13.0 mph

Today
High -- | Low -- °F
--% Chance of Precip.
Yesterday
High -- | Low -- °F
Precip. -- in
6:26 AM 5:44 PM
Waxing Gibbous, 94% visible
Pressure 30.28 in
Visibility 10.0 miles
Clouds Clear
Windchill 24 °F
Dew Point 12 °F
Humidity 60%
Rainfall 0.07 in
Snow Depth Not available.
UV 0 out of 12
Pollen .40 out of 12
Air Quality Not available.
Flu Activity Not available.
METAR KOXC 030355Z 32004KT 10SM CLR M04/M16 A3028 RMK AO1

More Conditions Fewer Conditions

Pressure 30.28 in
Visibility 10.0 miles
Clouds Clear
Windchill 24 °F
Dew Point 12 °F
Humidity 60%
Rainfall 0.07 in
Snow Depth Not available.
UV 0 out of 12
Pollen .40 out of 12
Air Quality Not available.
Flu Activity Not available.
METAR KOXC 030355Z 32004KT 10SM CLR M04/M16 A3028 RMK AO1

More Conditions Fewer Conditions

10-Day Weather Forecast

Almanac

Astronomy

Mar. 02, 2015 Rise Set
Actual Time
Civil Twilight
Nautical Twilight
Astronomical Twilight
Moon
Length of Visible Light
Length of Day
Tomorrow will be .
, % of the Moon is Illuminated

Today's Extremes

State Highs State Lows

Community

WunderPhotos

Upload Photos

1,802,061 photos uploaded!

WunderBlogs® & News

Nearby

Air Quality

  Air Quality AQ Index Pollutant
Not available.

Snow Depth

Station Depth Elevation

Earthquake Activity

City Distance Mag. Time & Date
Minimum magnitude displayed is 2.5.

Coastal Water Temperatures

Place Temperature

Nearby Weather Stations

Winter Weather Advisory
Statement as of 4:11 PM EST on March 02, 2015

... Winter Weather Advisory in effect from 3 PM Tuesday to 10 am
EST Wednesday...

The National Weather Service in New York has issued a Winter
Weather Advisory for snow and freezing rain... which is in effect
from 3 PM Tuesday to 10 am EST Wednesday.

* Locations... the lower Hudson Valley... most of southern
Connecticut... and parts of northeast New Jersey.

* Hazard types... snow and freezing rain.

* Accumulations... snow accumulation of 2 to 4 inches... along with
up to a tenth of an inch of ice.

* Temperatures... starting in the mid 20s Tuesday afternoon... then
slowly rising into the lower 30s Wednesday morning.

* Timing... snow develops late Tuesday afternoon... then mixes with
sleet and freezing rain Tuesday night before a changeover to
freezing rain late at night.

* Impacts... snow covered surfaces... coated with ice... will make
traveling difficult at times.

Precautionary/preparedness actions...

A Winter Weather Advisory means that periods of snow... sleet... or
freezing rain will cause travel difficulties. Be prepared for
slippery roads and limited visibilities... and use caution while
driving.